Time;durP1;ratioP1;P1;durP2;ratioP2;P2;SDS_P1;SDS_P2;PMS_P1;PMS_P2;Temp;Humidity;BMP_temperature;BMP_pressure;BME280_temperature;BME280_humidity;BME280_pressure;Samples;Min_cycle;Max_cycle;Signal;HPM_P1;HPM_P2
2022/06/25 00:01:25;;;;;;;4.57;1.47;;;17.20;99.90;;;;;;4976753;28;20179;-36
2022/06/25 00:03:53;;;;;;;4.33;1.67;;;17.20;99.90;;;;;;4977282;28;20183;-35
2022/06/25 00:06:20;;;;;;;2.03;1.60;;;17.10;99.90;;;;;;4989693;28;20199;-35
2022/06/25 00:08:47;;;;;;;5.87;1.80;;;17.00;99.90;;;;;;4992644;28;20271;-35
2022/06/25 00:14:07;;;;;;;3.90;1.87;;;17.00;99.90;;;;;;4997016;28;20176;-35
2022/06/25 00:16:34;;;;;;;5.37;1.80;;;16.90;99.90;;;;;;4960426;28;20211;-35
2022/06/25 00:19:01;;;;;;;2.97;1.50;;;16.80;99.90;;;;;;4992970;28;20233;-35
2022/06/25 00:21:28;;;;;;;3.90;1.47;;;16.80;99.90;;;;;;4993944;28;20286;-35
2022/06/25 00:23:54;;;;;;;4.37;1.60;;;16.70;99.90;;;;;;5001044;28;20174;-35
2022/06/25 00:26:20;;;;;;;3.33;1.60;;;16.70;99.90;;;;;;4992943;28;20226;-35
2022/06/25 00:28:47;;;;;;;2.13;1.80;;;16.80;99.90;;;;;;4976012;28;20261;-38
2022/06/25 00:31:13;;;;;;;4.80;1.47;;;16.80;99.90;;;;;;4980760;28;20643;-37
2022/06/25 00:33:40;;;;;;;3.43;1.50;;;16.80;99.90;;;;;;4976401;28;20267;-36
2022/06/25 00:36:07;;;;;;;4.17;1.57;;;16.80;99.90;;;;;;4991364;28;20195;-35
2022/06/25 00:38:35;;;;;;;4.00;1.87;;;16.70;99.90;;;;;;4980297;28;20217;-35
2022/06/25 00:41:03;;;;;;;5.23;2.10;;;16.70;99.90;;;;;;4991233;28;20183;-35
2022/06/25 00:43:30;;;;;;;5.90;1.77;;;16.60;99.90;;;;;;4993047;28;20179;-36
2022/06/25 00:45:56;;;;;;;2.73;1.60;;;16.60;99.90;;;;;;4992755;28;20182;-35
2022/06/25 00:48:22;;;;;;;7.30;1.77;;;16.60;99.90;;;;;;4992863;28;20176;-35
2022/06/25 00:50:48;;;;;;;3.53;1.53;;;16.50;99.90;;;;;;5011490;28;20190;-35
2022/06/25 00:53:16;;;;;;;2.93;1.60;;;16.50;99.90;;;;;;4982192;28;20207;-35
2022/06/25 00:55:47;;;;;;;4.13;1.30;;;16.50;99.90;;;;;;4991913;28;20187;-35
2022/06/25 00:58:18;;;;;;;6.77;1.60;;;16.50;99.90;;;;;;4993055;28;20223;-38
2022/06/25 01:00:46;;;;;;;3.00;1.50;;;16.50;99.90;;;;;;4992908;28;20263;-38
2022/06/25 01:03:12;;;;;;;2.63;1.70;;;16.50;99.90;;;;;;4992747;28;20183;-38
2022/06/25 01:05:37;;;;;;;3.93;1.50;;;16.40;99.90;;;;;;4992289;28;20186;-37
2022/06/25 01:08:04;;;;;;;5.00;1.50;;;16.30;99.90;;;;;;4992546;28;20207;-37
2022/06/25 01:10:29;;;;;;;4.30;1.63;;;16.40;99.90;;;;;;4976721;28;20190;-37
2022/06/25 01:12:55;;;;;;;5.37;1.53;;;16.30;99.90;;;;;;4992743;28;20183;-38
2022/06/25 01:15:22;;;;;;;3.30;1.70;;;16.30;99.90;;;;;;4976492;28;20190;-38
2022/06/25 01:17:50;;;;;;;4.63;1.50;;;16.20;99.90;;;;;;4992140;28;20298;-37
2022/06/25 01:20:17;;;;;;;1.80;1.70;;;16.10;99.90;;;;;;4976395;28;20184;-38
2022/06/25 01:22:43;;;;;;;3.93;1.50;;;16.10;99.90;;;;;;4976633;28;20175;-38
2022/06/25 01:25:10;;;;;;;2.73;1.50;;;16.00;99.90;;;;;;4992247;28;20262;-37
2022/06/25 01:27:38;;;;;;;3.63;1.60;;;16.00;99.90;;;;;;4994532;28;20200;-37
2022/06/25 01:30:06;;;;;;;3.93;1.40;;;16.00;99.90;;;;;;4979309;28;20187;-37
2022/06/25 01:32:32;;;;;;;3.20;1.70;;;16.00;99.90;;;;;;5014201;28;20231;-38
2022/06/25 01:34:58;;;;;;;3.67;1.70;;;16.00;99.90;;;;;;4995520;28;20191;-38
2022/06/25 01:37:24;;;;;;;2.47;1.60;;;16.10;99.90;;;;;;5013966;28;20289;-38
2022/06/25 01:39:54;;;;;;;2.10;1.57;;;16.00;99.90;;;;;;4996104;28;20279;-41
2022/06/25 01:45:10;;;;;;;3.90;1.97;;;15.90;99.90;;;;;;4995457;28;20175;-40
2022/06/25 01:47:37;;;;;;;2.97;1.40;;;15.80;99.90;;;;;;4995921;28;20230;-42
2022/06/25 01:50:03;;;;;;;2.50;1.40;;;15.80;99.90;;;;;;4995657;28;20234;-38
2022/06/25 01:52:29;;;;;;;2.87;1.53;;;15.80;99.90;;;;;;4996141;28;20253;-39
2022/06/25 01:54:55;;;;;;;2.20;1.40;;;15.80;99.90;;;;;;4994855;28;20213;-44
2022/06/25 01:57:21;;;;;;;2.47;1.73;;;15.80;99.90;;;;;;4979254;28;20767;-38
2022/06/25 01:59:49;;;;;;;2.17;1.80;;;15.80;99.90;;;;;;4976279;28;20215;-39
2022/06/25 02:02:15;;;;;;;3.63;1.80;;;15.80;99.90;;;;;;4971543;28;20267;-39
2022/06/25 02:04:41;;;;;;;6.47;1.80;;;15.80;99.90;;;;;;4993668;28;20266;-39
2022/06/25 02:07:07;;;;;;;3.27;1.70;;;15.80;99.90;;;;;;4979496;28;20290;-38
2022/06/25 02:09:35;;;;;;;5.90;1.80;;;15.80;99.90;;;;;;4979027;28;20183;-38
2022/06/25 02:12:01;;;;;;;2.57;1.87;;;15.80;99.90;;;;;;4995770;28;20222;-38
2022/06/25 02:14:27;;;;;;;5.00;1.60;;;15.80;99.90;;;;;;4995035;28;20187;-40
2022/06/25 02:16:54;;;;;;;3.00;1.50;;;15.90;99.90;;;;;;4994366;28;20221;-38
2022/06/25 02:19:20;;;;;;;1.60;1.50;;;15.90;99.90;;;;;;4979283;28;20175;-40
2022/06/25 02:21:45;;;;;;;2.37;1.70;;;15.80;99.90;;;;;;4978097;28;20249;-39
2022/06/25 02:24:11;;;;;;;1.60;1.50;;;15.80;99.90;;;;;;4994614;28;20183;-38
2022/06/25 02:26:37;;;;;;;3.43;1.77;;;15.80;99.90;;;;;;4994443;28;20238;-39
2022/06/25 02:29:03;;;;;;;2.60;1.80;;;15.70;99.90;;;;;;4994487;28;20179;-38
2022/06/25 02:31:29;;;;;;;4.70;1.63;;;15.70;99.90;;;;;;4994575;28;20652;-39
2022/06/25 02:33:55;;;;;;;4.03;1.80;;;15.60;99.90;;;;;;4994524;28;20184;-38
2022/06/25 02:36:21;;;;;;;7.13;1.80;;;15.50;99.90;;;;;;4994838;28;20207;-38
2022/06/25 02:38:48;;;;;;;2.93;1.70;;;15.50;99.90;;;;;;4993814;28;20297;-39
2022/06/25 02:41:14;;;;;;;3.47;1.67;;;15.50;99.90;;;;;;4995025;28;20175;-38
2022/06/25 02:43:40;;;;;;;2.60;1.67;;;15.50;99.90;;;;;;5012747;28;20190;-38
2022/06/25 02:46:26;;;;;;;4.77;1.80;;;15.50;99.90;;;;;;4994691;28;20214;-38
2022/06/25 02:48:55;;;;;;;1.90;1.80;;;15.50;99.90;;;;;;4995119;28;20202;-39
2022/06/25 02:51:21;;;;;;;3.80;1.70;;;15.50;99.90;;;;;;4994525;28;20175;-38
2022/06/25 02:53:48;;;;;;;4.97;2.13;;;15.50;99.90;;;;;;4994114;28;20179;-38
2022/06/25 02:59:03;;;;;;;3.20;1.63;;;15.40;99.90;;;;;;4991194;28;20281;-39
2022/06/25 03:01:36;;;;;;;4.67;2.30;;;15.40;99.90;;;;;;4977284;28;20175;-39
2022/06/25 03:04:02;;;;;;;5.20;1.63;;;15.20;99.90;;;;;;4994412;28;20179;-38
2022/06/25 03:06:28;;;;;;;2.87;1.63;;;15.10;99.90;;;;;;4977968;28;20265;-38
2022/06/25 03:08:56;;;;;;;4.80;2.00;;;15.10;99.90;;;;;;4994058;28;20182;-37
2022/06/25 03:11:22;;;;;;;6.90;2.07;;;15.00;99.90;;;;;;4994514;28;20178;-38
2022/06/25 03:13:49;;;;;;;4.63;2.03;;;15.00;99.90;;;;;;4977630;28;20175;-38
2022/06/25 03:16:16;;;;;;;4.40;2.23;;;15.00;99.90;;;;;;4993959;28;20196;-38
2022/06/25 03:18:42;;;;;;;6.27;2.33;;;15.00;99.90;;;;;;4992909;28;20241;-40
2022/06/25 03:21:11;;;;;;;3.87;2.27;;;15.00;99.90;;;;;;4994863;28;20198;-43
2022/06/25 03:23:37;;;;;;;2.87;1.87;;;15.00;99.90;;;;;;4992665;28;20172;-39
2022/06/25 03:26:04;;;;;;;3.77;2.00;;;15.10;99.90;;;;;;4994175;28;20172;-38
2022/06/25 03:28:30;;;;;;;4.00;2.20;;;15.00;99.90;;;;;;4993283;28;20186;-38
2022/06/25 03:30:56;;;;;;;4.90;2.10;;;14.90;99.90;;;;;;4994080;28;20274;-41
2022/06/25 03:33:24;;;;;;;6.77;2.17;;;14.80;99.90;;;;;;4993905;28;20191;-38
2022/06/25 03:36:04;;;;;;;5.23;2.60;;;14.70;99.90;;;;;;4993802;28;20195;-41
2022/06/25 03:38:33;;;;;;;7.47;2.33;;;14.60;99.90;;;;;;4992772;28;20215;-38
2022/06/25 03:43:49;;;;;;;5.17;2.07;;;14.50;99.90;;;;;;4992582;28;20175;-37
2022/06/25 03:46:18;;;;;;;4.53;2.40;;;14.50;99.90;;;;;;4993806;28;20203;-38
2022/06/25 03:48:43;;;;;;;3.57;2.27;;;14.40;99.90;;;;;;4978068;28;20713;-37
2022/06/25 03:51:27;;;;;;;6.03;2.47;;;14.40;99.90;;;;;;4979381;28;20179;-39
2022/06/25 03:53:54;;;;;;;4.70;2.10;;;14.40;99.90;;;;;;4976857;28;20206;-38
2022/06/25 03:56:20;;;;;;;3.60;2.40;;;14.40;99.90;;;;;;4993304;28;20570;-37
2022/06/25 03:58:47;;;;;;;5.17;2.27;;;14.40;99.90;;;;;;4976568;28;20213;-37
2022/06/25 04:01:14;;;;;;;4.30;2.20;;;14.30;99.90;;;;;;4992759;28;20432;-38
2022/06/25 04:03:42;;;;;;;4.93;2.40;;;14.30;99.90;;;;;;4992536;28;20215;-37
2022/06/25 04:06:12;;;;;;;3.37;2.03;;;14.30;99.90;;;;;;4993125;28;20183;-38
2022/06/25 04:08:43;;;;;;;5.87;2.23;;;14.30;99.90;;;;;;4973906;28;20270;-41
2022/06/25 04:11:12;;;;;;;5.47;2.30;;;14.20;99.90;;;;;;4974064;28;20180;-38
2022/06/25 04:13:44;;;;;;;4.53;2.50;;;14.20;99.90;;;;;;4992848;28;20183;-37
2022/06/25 04:16:12;;;;;;;6.90;2.70;;;14.30;99.90;;;;;;4992606;28;20686;-38
2022/06/25 04:18:38;;;;;;;5.50;2.17;;;14.20;99.90;;;;;;4993012;28;20226;-37
2022/06/25 04:21:04;;;;;;;3.57;2.43;;;14.30;99.90;;;;;;4992465;28;20184;-37
2022/06/25 04:23:30;;;;;;;3.53;2.50;;;14.30;99.90;;;;;;4993221;28;20175;-38
2022/06/25 04:25:56;;;;;;;2.73;2.20;;;14.40;99.90;;;;;;4992828;28;20214;-39
2022/06/25 04:31:26;;;;;;;4.13;1.90;;;14.60;99.90;;;;;;5009336;28;20183;-38
2022/06/25 04:33:53;;;;;;;5.73;2.27;;;14.60;99.90;;;;;;4993399;28;20186;-38
2022/06/25 04:36:20;;;;;;;4.40;2.13;;;14.70;99.90;;;;;;4973697;28;20676;-38
2022/06/25 04:38:50;;;;;;;4.03;2.30;;;14.70;99.90;;;;;;4973820;28;20211;-40
2022/06/25 04:41:16;;;;;;;4.37;2.17;;;14.80;99.90;;;;;;4971198;28;20243;-38
2022/06/25 04:43:46;;;;;;;6.57;2.30;;;14.80;99.90;;;;;;4989809;28;20177;-39
2022/06/25 04:46:17;;;;;;;7.57;2.43;;;14.80;99.90;;;;;;4990211;28;20200;-39
2022/06/25 04:48:45;;;;;;;3.80;2.43;;;14.80;99.90;;;;;;4977553;28;20186;-38
2022/06/25 04:51:24;;;;;;;4.10;2.50;;;14.90;99.90;;;;;;4977492;28;20175;-41
2022/06/25 04:53:56;;;;;;;3.07;2.47;;;14.90;99.90;;;;;;4992669;28;20203;-42
2022/06/25 04:56:31;;;;;;;7.10;2.70;;;14.90;99.90;;;;;;4992009;28;20202;-39
2022/06/25 04:58:58;;;;;;;3.40;2.63;;;15.00;99.90;;;;;;4992814;28;20234;-41
2022/06/25 05:01:45;;;;;;;5.77;2.73;;;15.10;99.90;;;;;;4988819;28;20668;-40
2022/06/25 05:04:12;;;;;;;3.70;2.70;;;15.20;99.90;;;;;;4996631;28;20179;-42
2022/06/25 05:06:38;;;;;;;7.70;2.50;;;15.20;99.90;;;;;;4996455;28;20199;-38
2022/06/25 05:09:04;;;;;;;4.97;2.40;;;15.30;99.90;;;;;;4996364;28;20250;-38
2022/06/25 05:11:30;;;;;;;4.87;2.80;;;15.40;99.90;;;;;;4995396;28;20172;-40
2022/06/25 05:13:56;;;;;;;4.53;2.60;;;15.50;99.90;;;;;;5013793;28;20262;-38
2022/06/25 05:16:22;;;;;;;3.27;1.90;;;15.50;99.90;;;;;;4995545;28;20199;-39
2022/06/25 05:18:49;;;;;;;3.20;2.00;;;15.60;99.90;;;;;;4996169;28;20219;-38
2022/06/25 05:21:15;;;;;;;2.63;2.20;;;15.70;99.90;;;;;;4983027;28;20174;-38
2022/06/25 05:23:42;;;;;;;3.17;2.30;;;15.70;99.90;;;;;;5015839;28;20174;-44
2022/06/25 05:26:08;;;;;;;2.00;1.90;;;15.80;99.90;;;;;;4990932;28;20172;-39
2022/06/25 05:28:34;;;;;;;3.43;1.87;;;15.80;99.90;;;;;;4980055;28;20191;-39
2022/06/25 05:31:00;;;;;;;3.13;2.00;;;16.00;99.90;;;;;;4994517;28;20270;-38
2022/06/25 05:33:26;;;;;;;1.80;1.70;;;16.00;99.90;;;;;;4996244;28;20255;-38
2022/06/25 05:35:54;;;;;;;2.90;2.00;;;16.20;99.90;;;;;;4995053;28;20191;-43
2022/06/25 05:38:20;;;;;;;2.27;1.70;;;16.20;99.90;;;;;;4996019;28;20211;-38
2022/06/25 05:40:46;;;;;;;4.33;2.10;;;16.30;99.90;;;;;;4995377;28;20266;-40
2022/06/25 05:43:13;;;;;;;2.43;2.20;;;16.40;99.90;;;;;;4995393;28;20175;-40
2022/06/25 05:45:39;;;;;;;2.23;1.90;;;16.40;99.90;;;;;;4994023;28;20187;-40
2022/06/25 05:48:05;;;;;;;2.10;1.90;;;16.50;99.90;;;;;;4995475;28;20482;-39
2022/06/25 05:50:31;;;;;;;4.87;2.30;;;16.60;99.90;;;;;;4995289;28;20187;-39
2022/06/25 05:52:57;;;;;;;4.80;2.20;;;16.70;99.90;;;;;;4995206;28;20183;-39
2022/06/25 05:55:24;;;;;;;2.67;1.90;;;16.90;99.90;;;;;;4978765;28;20186;-38
2022/06/25 05:57:51;;;;;;;4.53;1.90;;;17.00;99.90;;;;;;5012078;28;20282;-39
2022/06/25 06:00:18;;;;;;;7.27;2.00;;;17.10;99.90;;;;;;4979108;28;20187;-38
2022/06/25 06:02:44;;;;;;;4.10;1.87;;;17.30;99.90;;;;;;5008894;28;20184;-40
2022/06/25 06:05:10;;;;;;;3.37;1.83;;;17.50;99.90;;;;;;4994646;28;20194;-40
2022/06/25 06:07:36;;;;;;;1.98;1.85;;;17.60;99.90;;;;;;4994940;28;20688;-38
2022/06/25 06:10:04;;;;;;;3.83;1.97;;;17.70;99.90;;;;;;5006824;28;20194;-38
2022/06/25 06:12:30;;;;;;;2.93;1.70;;;17.80;99.90;;;;;;4994292;28;20277;-39
2022/06/25 06:14:56;;;;;;;2.93;1.90;;;17.80;99.90;;;;;;4994033;28;20203;-39
2022/06/25 06:17:22;;;;;;;1.63;1.50;;;17.90;99.90;;;;;;4979142;28;20297;-39
2022/06/25 06:19:49;;;;;;;3.05;1.67;;;18.10;99.90;;;;;;4995101;28;20195;-38
2022/06/25 06:22:15;;;;;;;3.20;1.20;;;18.30;99.90;;;;;;4995346;28;20189;-39
2022/06/25 06:24:41;;;;;;;2.97;1.27;;;18.50;99.90;;;;;;4994664;28;20186;-39
2022/06/25 06:27:06;;;;;;;2.03;1.30;;;18.50;99.90;;;;;;4978019;28;20203;-38
2022/06/25 06:29:32;;;;;;;2.60;1.30;;;18.70;99.90;;;;;;4995336;28;20183;-39
2022/06/25 06:31:58;;;;;;;1.33;1.15;;;18.90;99.90;;;;;;4978648;28;20200;-39
2022/06/25 06:34:24;;;;;;;1.92;1.20;;;19.10;99.90;;;;;;4994340;28;20197;-38
2022/06/25 06:36:50;;;;;;;1.60;1.17;;;19.20;99.90;;;;;;4993927;28;20231;-39
2022/06/25 06:39:16;;;;;;;3.13;1.60;;;19.40;99.90;;;;;;4977979;28;20176;-44
2022/06/25 06:41:42;;;;;;;1.30;1.20;;;19.50;99.90;;;;;;4978440;28;20186;-39
2022/06/25 06:44:09;;;;;;;1.40;1.00;;;19.70;99.90;;;;;;5010559;28;20198;-42
2022/06/25 06:46:37;;;;;;;2.00;1.08;;;19.80;99.90;;;;;;4994825;28;20199;-40
2022/06/25 06:49:03;;;;;;;4.00;1.17;;;20.00;99.90;;;;;;5011874;28;20186;-42
2022/06/25 06:51:29;;;;;;;1.67;1.00;;;19.90;99.90;;;;;;4993659;28;20211;-41
2022/06/25 06:53:56;;;;;;;2.38;1.10;;;20.10;99.90;;;;;;4976503;28;20253;-39
2022/06/25 06:56:22;;;;;;;2.05;1.30;;;20.10;99.90;;;;;;5008065;28;20195;-39
2022/06/25 06:58:48;;;;;;;3.33;0.98;;;20.10;99.90;;;;;;4977309;28;20211;-39
2022/06/25 07:01:14;;;;;;;2.47;1.20;;;19.90;99.90;;;;;;4993887;28;20179;-40
2022/06/25 07:03:40;;;;;;;3.75;1.05;;;20.00;99.90;;;;;;4977498;28;20187;-39
2022/06/25 07:06:06;;;;;;;1.77;1.10;;;20.00;99.90;;;;;;5019632;28;20191;-41
2022/06/25 07:08:33;;;;;;;1.80;1.10;;;20.00;99.90;;;;;;4997003;28;20222;-40
2022/06/25 07:10:59;;;;;;;1.23;1.13;;;20.10;99.90;;;;;;4993859;28;20230;-39
2022/06/25 07:13:25;;;;;;;2.90;1.10;;;20.00;99.90;;;;;;5006004;28;20206;-40
2022/06/25 07:15:51;;;;;;;1.10;1.00;;;20.00;99.90;;;;;;4989844;28;20187;-42
2022/06/25 07:18:17;;;;;;;2.85;1.10;;;20.10;99.90;;;;;;4979233;28;20745;-39
2022/06/25 07:20:43;;;;;;;2.25;1.00;;;20.20;99.90;;;;;;4978307;28;20210;-39
2022/06/25 07:23:09;;;;;;;1.13;0.90;;;20.40;99.90;;;;;;4993958;28;20179;-40
2022/06/25 07:25:35;;;;;;;1.08;1.00;;;20.60;99.90;;;;;;4975329;28;20190;-40
2022/06/25 07:28:01;;;;;;;1.17;0.93;;;20.80;99.90;;;;;;4974560;28;20290;-40
2022/06/25 07:30:27;;;;;;;1.60;1.20;;;21.00;99.90;;;;;;4989717;28;20262;-43
2022/06/25 07:32:53;;;;;;;1.88;1.00;;;21.30;99.90;;;;;;4993724;28;20262;-41
2022/06/25 07:35:19;;;;;;;2.38;1.10;;;21.50;99.90;;;;;;4976778;28;20195;-40
2022/06/25 07:37:45;;;;;;;1.40;1.30;;;21.50;99.90;;;;;;4996091;28;20280;-42
2022/06/25 07:40:12;;;;;;;1.23;1.05;;;21.70;99.90;;;;;;4997083;28;20256;-42
2022/06/25 07:42:37;;;;;;;1.55;1.02;;;21.80;99.90;;;;;;4987478;28;20274;-39
2022/06/25 07:45:04;;;;;;;1.60;1.00;;;21.80;99.90;;;;;;4993859;28;20270;-40
2022/06/25 07:47:37;;;;;;;2.00;1.10;;;21.60;99.90;;;;;;4993242;28;20227;-39
2022/06/25 07:52:49;;;;;;;506.13;273.98;;;21.80;99.90;;;;;;4993532;28;20183;-38
2022/06/25 07:55:15;;;;;;;31.88;19.05;;;22.00;99.90;;;;;;4992881;28;20209;-41
2022/06/25 07:57:42;;;;;;;164.63;89.75;;;22.20;99.90;;;;;;4977575;28;20554;-43
2022/06/25 08:00:09;;;;;;;24.75;15.38;;;22.30;99.90;;;;;;4992352;28;20277;-39
2022/06/25 08:02:38;;;;;;;437.65;269.38;;;22.10;99.90;;;;;;4993963;28;20278;-38
2022/06/25 08:05:04;;;;;;;55.25;31.25;;;22.20;99.90;;;;;;4993059;28;20270;-39
2022/06/25 08:07:30;;;;;;;16.52;8.82;;;22.40;99.90;;;;;;4977426;28;20203;-41
2022/06/25 08:09:56;;;;;;;238.73;121.32;;;22.60;99.90;;;;;;4993248;28;20647;-43
2022/06/25 08:12:22;;;;;;;577.67;326.05;;;22.70;99.90;;;;;;4992465;28;20277;-40
2022/06/25 08:14:48;;;;;;;644.42;302.08;;;22.80;99.90;;;;;;5009850;28;20197;-39
2022/06/25 08:17:13;;;;;;;226.30;98.72;;;22.90;99.90;;;;;;4992410;28;20219;-38
2022/06/25 08:19:39;;;;;;;316.63;151.30;;;23.00;99.90;;;;;;4993830;28;20183;-38
2022/06/25 08:22:05;;;;;;;952.60;516.95;;;23.10;99.90;;;;;;4991849;28;20171;-39
2022/06/25 08:24:31;;;;;;;231.02;127.80;;;23.20;99.90;;;;;;4975930;28;20202;-38
2022/06/25 08:26:57;;;;;;;307.08;167.80;;;23.40;99.90;;;;;;4992631;28;20202;-43
2022/06/25 08:29:24;;;;;;;58.50;36.65;;;23.60;99.90;;;;;;4995896;28;20183;-38
2022/06/25 08:31:50;;;;;;;70.97;45.15;;;23.60;99.90;;;;;;4992156;28;20247;-38
2022/06/25 08:34:17;;;;;;;728.33;528.10;;;23.40;99.90;;;;;;4977490;28;20191;-40
2022/06/25 08:36:44;;;;;;;344.52;215.23;;;23.40;99.90;;;;;;4991280;28;20261;-42
2022/06/25 08:39:10;;;;;;;1187.68;655.47;;;23.50;99.90;;;;;;4997821;28;20344;-38
2022/06/25 08:41:36;;;;;;;228.40;101.75;;;23.50;99.90;;;;;;4996856;28;20238;-40
2022/06/25 08:44:02;;;;;;;301.23;181.55;;;23.30;99.90;;;;;;4997908;28;20174;-43
2022/06/25 08:46:28;;;;;;;724.50;553.53;;;23.30;99.90;;;;;;5011299;28;20206;-42
2022/06/25 08:48:56;;;;;;;51.45;40.00;;;23.30;99.90;;;;;;4980844;28;20188;-41
2022/06/25 08:51:27;;;;;;;100.78;90.75;;;23.30;99.90;;;;;;4997548;28;20190;-40
2022/06/25 08:53:54;;;;;;;5.85;5.35;;;23.40;99.90;;;;;;4983302;28;20202;-41
2022/06/25 08:56:20;;;;;;;2.75;1.90;;;23.60;99.90;;;;;;5000775;28;20210;-39
2022/06/25 08:58:46;;;;;;;2.05;1.80;;;23.80;99.90;;;;;;4997495;28;20215;-39
2022/06/25 09:01:12;;;;;;;3.15;1.70;;;24.10;99.90;;;;;;4998408;28;20178;-41
2022/06/25 09:03:39;;;;;;;1.95;1.80;;;24.30;99.90;;;;;;4998349;28;20182;-40
2022/06/25 09:06:19;;;;;;;3.28;1.60;;;24.20;99.90;;;;;;4984895;28;20190;-41
2022/06/25 09:09:15;;;;;;;2.33;1.40;;;24.20;99.90;;;;;;4993376;28;20195;-41
2022/06/25 09:11:55;;;;;;;2.00;1.35;;;24.40;99.90;;;;;;4994728;28;20172;-40
2022/06/25 09:14:27;;;;;;;1.25;1.17;;;24.50;99.90;;;;;;4976930;28;20186;-40
2022/06/25 09:16:57;;;;;;;2.88;1.50;;;24.70;99.90;;;;;;4976807;28;20764;-39
2022/06/25 09:19:30;;;;;;;2.58;1.58;;;24.70;99.90;;;;;;4977023;28;20180;-39
2022/06/25 09:21:58;;;;;;;3.33;1.40;;;24.60;99.90;;;;;;4976973;28;20207;-41
2022/06/25 09:24:44;;;;;;;2.00;1.40;;;24.90;99.90;;;;;;4976611;28;20183;-40
2022/06/25 09:27:10;;;;;;;2.20;1.40;;;25.00;99.90;;;;;;4976739;28;20200;-38
2022/06/25 09:29:48;;;;;;;2.33;1.70;;;25.20;99.90;;;;;;4976845;28;20231;-42
2022/06/25 09:32:15;;;;;;;1.95;1.25;;;25.40;99.90;;;;;;4976814;28;20168;-39
2022/06/25 09:34:42;;;;;;;2.42;1.40;;;25.50;99.90;;;;;;4994535;28;20187;-40
2022/06/25 09:37:25;;;;;;;2.03;1.40;;;25.40;99.90;;;;;;5013742;28;20256;-38
2022/06/25 09:39:53;;;;;;;3.30;1.30;;;25.50;99.90;;;;;;5013709;28;20199;-39
2022/06/25 09:42:22;;;;;;;2.65;1.40;;;25.40;99.90;;;;;;4995896;28;20179;-40
2022/06/25 09:44:56;;;;;;;1.95;1.40;;;25.40;99.90;;;;;;5013320;28;20172;-40
2022/06/25 09:47:23;;;;;;;1.25;1.25;;;25.40;99.90;;;;;;4996084;28;20210;-42
2022/06/25 09:49:49;;;;;;;1.88;1.48;;;25.40;99.90;;;;;;5013085;28;20183;-39
2022/06/25 09:52:15;;;;;;;4.63;1.42;;;25.10;99.90;;;;;;5011798;28;20193;-41
2022/06/25 09:54:41;;;;;;;2.20;1.70;;;25.00;99.90;;;;;;5013247;28;20175;-39
2022/06/25 09:57:07;;;;;;;1.83;1.25;;;24.80;99.90;;;;;;4995736;28;20195;-42
2022/06/25 09:59:38;;;;;;;2.67;1.48;;;24.90;99.90;;;;;;4995164;28;20591;-39
2022/06/25 10:02:04;;;;;;;1.45;1.33;;;25.20;99.90;;;;;;5008897;28;20295;-41
2022/06/25 10:04:31;;;;;;;1.58;1.27;;;25.30;99.90;;;;;;4979336;28;20243;-39
2022/06/25 10:07:02;;;;;;;2.13;1.40;;;25.10;99.90;;;;;;5013485;28;20191;-43
2022/06/25 10:09:29;;;;;;;2.95;1.70;;;25.50;99.90;;;;;;5013096;28;20223;-39
2022/06/25 10:11:55;;;;;;;2.05;1.58;;;25.80;99.90;;;;;;4995454;28;20187;-38
2022/06/25 10:14:22;;;;;;;1.77;1.30;;;25.90;99.90;;;;;;4995456;28;20172;-41
2022/06/25 10:16:49;;;;;;;2.20;1.48;;;26.00;99.90;;;;;;4995477;28;20286;-39
2022/06/25 10:19:18;;;;;;;2.13;1.40;;;25.90;99.90;;;;;;4995310;28;20239;-39
2022/06/25 10:21:44;;;;;;;1.60;1.45;;;26.10;99.90;;;;;;4995391;28;20210;-39
2022/06/25 10:24:10;;;;;;;1.50;1.40;;;26.10;99.90;;;;;;4995093;28;20179;-42
2022/06/25 10:26:36;;;;;;;2.03;1.60;;;26.10;99.90;;;;;;4995180;28;20202;-39
2022/06/25 10:29:03;;;;;;;2.47;1.48;;;26.10;99.90;;;;;;4995166;28;20187;-38
2022/06/25 10:31:30;;;;;;;2.17;1.50;;;26.40;99.90;;;;;;4995107;28;20175;-38
2022/06/25 10:33:58;;;;;;;1.70;1.48;;;26.30;99.90;;;;;;4994901;28;20187;-39
2022/06/25 10:36:45;;;;;;;3.78;1.60;;;26.10;99.90;;;;;;4994830;28;20211;-39
2022/06/25 10:39:23;;;;;;;2.15;1.95;;;25.90;99.90;;;;;;4994825;28;20211;-39
2022/06/25 10:45:27;;;;;;;3.13;1.45;;;26.20;99.90;;;;;;4994595;28;20181;-40
2022/06/25 10:47:58;;;;;;;1.60;1.50;;;26.40;99.90;;;;;;4994556;28;20199;-40
2022/06/25 10:50:25;;;;;;;1.48;1.38;;;26.60;99.90;;;;;;5012313;28;20321;-39
2022/06/25 10:53:03;;;;;;;1.58;1.30;;;26.70;99.90;;;;;;4994628;28;20183;-39
2022/06/25 10:55:38;;;;;;;1.33;1.15;;;26.60;99.90;;;;;;4994398;28;20183;-39
2022/06/25 10:58:16;;;;;;;1.35;1.25;;;26.90;99.90;;;;;;4994125;28;20285;-40
2022/06/25 11:00:53;;;;;;;2.20;1.60;;;26.90;99.90;;;;;;4994330;28;20267;-39
2022/06/25 11:03:38;;;;;;;1.65;1.50;;;27.00;99.90;;;;;;4994539;28;20198;-39
2022/06/25 11:06:24;;;;;;;1.60;1.50;;;27.10;99.90;;;;;;4993940;28;20194;-41
2022/06/25 11:08:52;;;;;;;1.50;1.40;;;27.40;99.90;;;;;;4994562;28;20179;-39
2022/06/25 11:11:26;;;;;;;1.70;1.60;;;27.70;99.90;;;;;;4994559;28;20198;-39
2022/06/25 11:13:52;;;;;;;1.50;1.27;;;27.80;99.90;;;;;;4977798;28;20261;-39
2022/06/25 11:16:19;;;;;;;3.60;1.60;;;27.90;99.90;;;;;;4994407;28;20202;-44
2022/06/25 11:19:03;;;;;;;2.30;1.45;;;28.00;99.90;;;;;;4994114;28;20218;-38
2022/06/25 11:21:38;;;;;;;2.03;1.42;;;28.20;99.90;;;;;;4994398;28;20180;-39
2022/06/25 11:24:19;;;;;;;2.00;1.30;;;28.00;99.90;;;;;;4994048;28;20183;-39
2022/06/25 11:29:47;;;;;;;1.40;1.30;;;28.40;99.90;;;;;;4993908;28;20187;-42
2022/06/25 11:32:24;;;;;;;3.35;1.27;;;28.40;99.90;;;;;;4994124;28;20179;-41
2022/06/25 11:34:57;;;;;;;2.58;1.25;;;28.40;99.90;;;;;;4993535;28;20241;-40
2022/06/25 11:37:24;;;;;;;3.22;1.50;;;28.20;99.90;;;;;;5011374;28;20207;-41
2022/06/25 11:39:50;;;;;;;2.33;1.20;;;27.90;99.90;;;;;;4993884;28;20179;-43
2022/06/25 11:42:17;;;;;;;1.23;1.13;;;28.20;99.90;;;;;;4993898;28;20183;-40
2022/06/25 11:44:45;;;;;;;3.20;1.17;;;28.30;99.90;;;;;;4977400;28;20179;-42
2022/06/25 11:47:18;;;;;;;2.67;1.42;;;28.10;99.90;;;;;;4978169;28;20204;-39
2022/06/25 11:49:45;;;;;;;2.17;1.20;;;28.10;99.90;;;;;;4994204;28;20237;-41
2022/06/25 11:52:12;;;;;;;1.17;1.08;;;28.40;99.90;;;;;;4993730;28;20187;-40
2022/06/25 11:54:40;;;;;;;3.05;1.30;;;28.80;99.90;;;;;;4993358;28;20191;-40
2022/06/25 11:57:09;;;;;;;1.20;1.10;;;29.00;99.90;;;;;;4993473;28;20294;-41
2022/06/25 11:59:38;;;;;;;2.60;1.33;;;29.20;99.90;;;;;;4993566;28;20245;-39
2022/06/25 12:02:06;;;;;;;1.40;1.30;;;29.30;99.90;;;;;;4993988;28;20282;-44
2022/06/25 12:04:45;;;;;;;1.40;1.30;;;29.20;99.90;;;;;;4993978;28;20171;-41
2022/06/25 12:07:29;;;;;;;1.40;1.30;;;29.10;99.90;;;;;;4977643;28;20191;-41
2022/06/25 12:10:00;;;;;;;2.80;1.23;;;28.70;99.90;;;;;;4992837;28;20183;-43
2022/06/25 12:12:27;;;;;;;1.88;1.35;;;29.00;99.90;;;;;;4993582;28;20183;-39
2022/06/25 12:14:56;;;;;;;1.58;1.25;;;29.20;99.90;;;;;;4993147;28;20182;-39
2022/06/25 12:17:30;;;;;;;2.70;1.40;;;29.20;99.90;;;;;;4985370;28;20250;-41
2022/06/25 12:19:56;;;;;;;1.50;1.25;;;29.10;99.90;;;;;;5004388;28;20182;-40
2022/06/25 12:22:25;;;;;;;1.52;1.10;;;29.10;99.90;;;;;;5000295;28;20233;-38
2022/06/25 12:24:53;;;;;;;1.20;1.10;;;29.20;99.90;;;;;;5002167;28;20174;-41
2022/06/25 12:27:19;;;;;;;1.13;1.00;;;29.50;99.90;;;;;;4987264;28;20193;-41
2022/06/25 12:29:52;;;;;;;1.17;1.10;;;29.80;99.90;;;;;;4982762;28;20171;-41
2022/06/25 12:32:18;;;;;;;3.15;1.20;;;29.60;98.80;;;;;;4992526;28;20179;-41
2022/06/25 12:34:51;;;;;;;1.40;1.30;;;29.50;99.40;;;;;;4976005;28;20171;-40
2022/06/25 12:37:31;;;;;;;1.23;0.88;;;29.50;99.90;;;;;;4992307;28;20222;-39
2022/06/25 12:39:59;;;;;;;1.30;1.20;;;29.50;98.80;;;;;;4991526;28;20266;-42
2022/06/25 12:42:33;;;;;;;1.27;1.08;;;29.80;99.10;;;;;;4983597;28;20180;-39
2022/06/25 12:45:02;;;;;;;1.10;1.00;;;30.00;99.10;;;;;;4996469;28;20179;-40
2022/06/25 12:47:41;;;;;;;2.03;1.08;;;29.70;97.70;;;;;;4990512;28;20202;-39
2022/06/25 12:50:24;;;;;;;1.23;1.13;;;30.00;98.40;;;;;;4995272;28;20180;-38
2022/06/25 12:52:51;;;;;;;1.05;0.95;;;29.90;97.60;;;;;;4994391;28;20199;-42
2022/06/25 12:55:21;;;;;;;1.75;1.10;;;29.90;97.90;;;;;;4978000;28;20675;-40
2022/06/25 13:00:26;;;;;;;1.45;0.90;;;29.50;97.70;;;;;;5015148;28;20234;-42
2022/06/25 13:02:52;;;;;;;0.93;0.90;;;29.50;97.40;;;;;;5002365;28;20266;-42
2022/06/25 13:05:20;;;;;;;1.10;1.00;;;29.90;98.40;;;;;;5016160;28;20206;-41
2022/06/25 13:07:46;;;;;;;1.98;1.20;;;29.90;98.10;;;;;;5016453;28;20202;-42
2022/06/25 13:10:14;;;;;;;1.27;1.00;;;30.10;98.20;;;;;;4979526;28;20199;-40
2022/06/25 13:12:42;;;;;;;1.08;1.00;;;30.20;98.80;;;;;;4965269;28;20253;-42
2022/06/25 13:15:08;;;;;;;1.30;1.20;;;30.50;97.90;;;;;;5009445;28;20183;-42